createdAt,value
2018-03-02T00:00:31.127Z,-1.91
2018-03-02T00:02:27.060Z,-1.92
2018-03-02T00:03:27.070Z,-1.91
2018-03-02T00:05:23.010Z,-1.91
2018-03-02T00:06:22.942Z,-1.88
2018-03-02T00:08:18.825Z,-1.92
2018-03-02T00:09:19.385Z,-2.00
2018-03-02T00:11:14.780Z,-1.88
2018-03-02T00:12:15.251Z,-1.91
2018-03-02T00:14:11.136Z,-1.97
2018-03-02T00:15:11.140Z,-1.91
2018-03-02T00:17:07.074Z,-1.89
2018-03-02T00:18:08.056Z,-1.86
2018-03-02T00:20:02.458Z,-1.96
2018-03-02T00:21:02.434Z,-1.91
2018-03-02T00:22:58.347Z,-1.86
2018-03-02T00:23:58.341Z,-1.91
2018-03-02T00:25:55.290Z,-1.82
2018-03-02T00:26:54.246Z,-1.84
2018-03-02T00:28:50.126Z,-1.82
2018-03-02T00:29:50.143Z,-1.89
2018-03-02T00:31:46.038Z,-1.91
2018-03-02T00:32:46.015Z,-1.91
2018-03-02T00:34:41.914Z,-1.91
2018-03-02T00:35:41.945Z,-1.92
2018-03-02T00:37:39.834Z,-1.91
2018-03-02T00:38:39.812Z,-1.89
2018-03-02T00:40:35.761Z,-1.79
2018-03-02T00:41:35.715Z,-1.85
2018-03-02T00:43:32.150Z,-1.81
2018-03-02T00:44:32.158Z,-1.84
2018-03-02T00:46:28.052Z,-1.86
2018-03-02T00:47:27.532Z,-1.89
2018-03-02T00:49:23.974Z,-1.99
2018-03-02T00:50:23.432Z,-1.94
2018-03-02T00:52:19.338Z,-1.88
2018-03-02T00:53:19.346Z,-1.96
2018-03-02T00:55:15.769Z,-1.89
2018-03-02T00:56:15.236Z,-1.89
2018-03-02T00:58:11.135Z,-1.89
2018-03-02T00:59:11.124Z,-1.79
2018-03-02T01:01:07.043Z,-1.89
2018-03-02T01:02:07.026Z,-2.03
2018-03-02T01:04:03.467Z,-1.94
2018-03-02T01:05:02.917Z,-1.97
2018-03-02T01:06:59.370Z,-1.91
2018-03-02T01:07:59.350Z,-1.86
2018-03-02T01:09:55.258Z,-1.86
2018-03-02T01:10:56.242Z,-2.00
2018-03-02T01:12:51.173Z,-2.02
2018-03-02T01:13:51.608Z,-1.91
2018-03-02T01:15:47.080Z,-1.88
2018-03-02T01:16:46.572Z,-1.89
2018-03-02T01:18:42.998Z,-2.02
2018-03-02T01:19:42.421Z,-1.89
2018-03-02T01:21:38.904Z,-2.03
2018-03-02T01:22:39.290Z,-2.12
2018-03-02T01:24:35.254Z,-2.06
2018-03-02T01:25:34.240Z,-2.05
2018-03-02T01:27:30.379Z,-2.02
2018-03-02T01:28:30.364Z,-1.99
2018-03-02T01:30:26.293Z,-2.06
2018-03-02T01:31:26.255Z,-2.06
2018-03-02T01:33:22.182Z,-2.02
2018-03-02T01:34:22.224Z,-2.09
2018-03-02T01:36:18.126Z,-2.10
2018-03-02T01:37:18.605Z,-2.09
2018-03-02T01:39:14.032Z,-2.10
2018-03-02T01:40:13.976Z,-2.09
2018-03-02T01:42:09.939Z,-2.03
2018-03-02T01:43:09.882Z,-2.09
2018-03-02T01:45:06.324Z,-2.15
2018-03-02T01:46:05.783Z,-2.14
2018-03-02T01:48:02.716Z,-2.12
2018-03-02T01:49:01.659Z,-2.20
2018-03-02T01:51:00.096Z,-2.05
2018-03-02T01:51:59.564Z,-2.20
2018-03-02T01:53:55.475Z,-2.12
2018-03-02T01:54:55.450Z,-2.23
2018-03-02T01:56:51.893Z,-2.18
2018-03-02T01:57:51.890Z,-2.23
2018-03-02T01:59:47.813Z,-2.17
2018-03-02T02:00:47.821Z,-2.20
2018-03-02T02:02:43.209Z,-2.12
2018-03-02T02:03:43.193Z,-2.21
2018-03-02T02:05:39.152Z,-2.20
2018-03-02T02:06:39.088Z,-2.09
2018-03-02T02:08:35.554Z,-2.06
2018-03-02T02:09:34.949Z,-2.09
2018-03-02T02:11:31.915Z,-2.05
2018-03-02T02:12:30.862Z,-2.20
2018-03-02T02:14:27.294Z,-2.14
2018-03-02T02:15:26.768Z,-2.06
2018-03-02T02:17:22.684Z,-2.06
2018-03-02T02:18:22.670Z,-2.00
2018-03-02T02:20:18.632Z,-2.06
2018-03-02T02:21:18.618Z,-1.89
2018-03-02T02:23:14.541Z,-2.03
2018-03-02T02:24:14.497Z,-2.00
2018-03-02T02:26:10.420Z,-2.09
2018-03-02T02:28:26.849Z,-2.23
2018-03-02T02:29:26.842Z,-2.18
2018-03-02T02:31:22.251Z,-2.17
2018-03-02T02:32:22.220Z,-2.17
2018-03-02T02:34:18.660Z,-2.14
2018-03-02T02:35:18.154Z,-2.09
2018-03-02T02:37:14.035Z,-2.06
2018-03-02T02:38:14.022Z,-2.14
2018-03-02T02:40:09.947Z,-2.00
2018-03-02T02:41:10.463Z,-2.20
2018-03-02T02:43:05.845Z,-2.14
2018-03-02T02:44:06.365Z,-2.20
2018-03-02T02:46:01.761Z,-2.17
2018-03-02T02:47:01.748Z,-2.10
2018-03-02T02:48:57.685Z,-2.15
2018-03-02T02:49:57.615Z,-2.15
2018-03-02T02:51:53.587Z,-2.09
2018-03-02T02:52:53.563Z,-2.21
2018-03-02T02:54:49.445Z,-2.21
2018-03-02T02:55:49.441Z,-2.21
2018-03-02T02:57:45.369Z,-2.12
2018-03-02T02:58:45.354Z,-2.09
2018-03-02T03:00:41.260Z,-2.24
2018-03-02T03:01:41.792Z,-2.12
2018-03-02T03:03:37.189Z,-2.18
2018-03-02T03:04:37.165Z,-2.15
2018-03-02T03:06:33.066Z,-2.09
2018-03-02T03:07:33.064Z,-2.24
2018-03-02T03:09:29.018Z,-2.06
2018-03-02T03:10:28.964Z,-2.06
2018-03-02T03:12:24.914Z,-2.03
2018-03-02T03:13:25.421Z,-2.02
2018-03-02T03:15:20.780Z,-2.06
2018-03-02T03:16:20.757Z,-2.06
2018-03-02T03:18:17.707Z,-2.05
2018-03-02T03:19:16.646Z,-2.10
2018-03-02T03:21:14.106Z,-2.10
2018-03-02T03:22:12.575Z,-2.07
2018-03-02T03:24:08.498Z,-2.12
2018-03-02T03:25:08.481Z,-2.17
2018-03-02T03:27:04.413Z,-2.20
2018-03-02T03:28:04.381Z,-2.24
2018-03-02T03:30:00.343Z,-2.10
2018-03-02T03:31:00.290Z,-2.10
2018-03-02T03:32:56.745Z,-2.02
2018-03-02T03:33:56.204Z,-2.05
2018-03-02T03:35:52.169Z,-2.00
2018-03-02T03:36:52.109Z,-2.18
2018-03-02T03:38:48.569Z,-2.20
2018-03-02T03:39:48.573Z,-2.12
2018-03-02T03:41:44.446Z,-2.09
2018-03-02T03:42:44.436Z,-2.00
2018-03-02T03:44:40.350Z,-2.02
2018-03-02T03:45:39.819Z,-2.09
2018-03-02T03:47:35.779Z,-2.03
2018-03-02T03:48:36.263Z,-2.10
2018-03-02T03:50:31.683Z,-2.20
2018-03-02T03:51:31.663Z,-2.14
2018-03-02T03:53:27.564Z,-2.17
2018-03-02T03:54:27.577Z,-2.06
2018-03-02T03:56:23.514Z,-2.09
2018-03-02T03:57:23.483Z,-2.09
2018-03-02T03:59:19.416Z,-2.07
2018-03-02T04:00:19.384Z,-2.17
2018-03-02T04:02:15.300Z,-2.07
2018-03-02T04:03:15.296Z,-2.07
2018-03-02T04:05:11.220Z,-2.09
2018-03-02T04:06:11.214Z,-2.17
2018-03-02T04:08:07.092Z,-2.10
2018-03-02T04:09:07.088Z,-2.12
2018-03-02T04:11:04.024Z,-2.03
2018-03-02T04:12:03.030Z,-2.05
2018-03-02T04:13:58.926Z,-2.07
2018-03-02T04:14:58.920Z,-2.02
2018-03-02T04:16:54.847Z,-2.12
2018-03-02T04:17:55.364Z,-2.15
2018-03-02T04:19:50.791Z,-2.20
2018-03-02T04:20:50.727Z,-2.05
2018-03-02T04:22:46.646Z,-2.12
2018-03-02T04:23:46.617Z,-2.23
2018-03-02T04:25:43.084Z,-2.14
2018-03-02T04:26:42.556Z,-2.07
2018-03-02T04:28:38.511Z,-2.05
2018-03-02T04:29:38.409Z,-2.14
2018-03-02T04:31:34.848Z,-2.17
2018-03-02T04:32:34.318Z,-2.12
2018-03-02T04:34:30.271Z,-2.24
2018-03-02T04:35:30.226Z,-2.21
2018-03-02T04:37:26.170Z,-2.20
2018-03-02T04:38:26.140Z,-2.12
2018-03-02T04:40:22.609Z,-2.14
2018-03-02T04:41:22.024Z,-2.05
2018-03-02T04:43:17.947Z,-2.20
2018-03-02T04:44:17.935Z,-2.09
2018-03-02T04:46:13.829Z,-2.09
2018-03-02T04:47:15.382Z,-2.06
2018-03-02T04:49:09.751Z,-2.02
2018-03-02T04:50:09.732Z,-2.17
2018-03-02T04:52:05.682Z,-2.10
2018-03-02T04:53:06.169Z,-2.23
2018-03-02T04:55:01.575Z,-2.24
2018-03-02T04:56:01.546Z,-2.21
2018-03-02T04:57:57.511Z,-2.21
2018-03-02T04:58:57.465Z,-2.15
2018-03-02T05:00:53.908Z,-2.14
2018-03-02T05:01:53.373Z,-2.09
2018-03-02T05:03:49.311Z,-2.17
2018-03-02T05:04:49.286Z,-2.17
2018-03-02T05:06:45.214Z,-2.23
2018-03-02T05:07:45.200Z,-2.24
2018-03-02T05:09:42.142Z,-2.23
2018-03-02T05:10:41.127Z,-2.18
2018-03-02T05:12:37.033Z,-2.25
2018-03-02T05:13:37.033Z,-2.21
2018-03-02T05:15:32.957Z,-2.17
2018-03-02T05:16:32.935Z,-2.25
2018-03-02T05:18:28.897Z,-2.24
2018-03-02T05:19:28.802Z,-2.25
2018-03-02T05:21:24.769Z,-2.20
2018-03-02T05:22:26.263Z,-2.24
2018-03-02T05:24:20.635Z,-2.25
2018-03-02T05:25:20.623Z,-2.15
2018-03-02T05:27:16.546Z,-2.18
2018-03-02T05:28:16.529Z,-2.30
2018-03-02T05:30:12.463Z,-2.27
2018-03-02T05:31:12.446Z,-2.32
2018-03-02T05:33:10.461Z,-2.36
2018-03-02T05:34:10.458Z,-2.30
2018-03-02T05:36:06.902Z,-2.34
2018-03-02T05:37:06.388Z,-2.40
2018-03-02T05:39:02.238Z,-2.53
2018-03-02T05:40:02.250Z,-2.36
2018-03-02T05:41:58.165Z,-2.32
2018-03-02T05:42:58.154Z,-2.34
2018-03-02T05:44:56.413Z,-2.40
2018-03-02T05:45:55.057Z,-2.39
2018-03-02T05:47:50.953Z,-2.47
2018-03-02T05:48:51.482Z,-2.47
2018-03-02T05:50:47.378Z,-2.28
2018-03-02T05:51:46.866Z,-2.32
2018-03-02T05:53:42.809Z,-2.24
2018-03-02T05:54:43.320Z,-2.27
2018-03-02T05:56:38.692Z,-2.25
2018-03-02T05:57:38.675Z,-2.28
2018-03-02T05:59:34.581Z,-2.34
2018-03-02T06:00:34.596Z,-2.34
2018-03-02T06:02:31.524Z,-2.18
2018-03-02T06:03:30.501Z,-2.25
2018-03-02T06:05:26.965Z,-2.30
2018-03-02T06:06:26.406Z,-2.25
2018-03-02T06:08:22.278Z,-2.34
2018-03-02T06:09:22.277Z,-2.32
2018-03-02T06:11:18.190Z,-2.25
2018-03-02T06:12:18.180Z,-2.18
2018-03-02T06:14:14.626Z,-2.27
2018-03-02T06:15:14.626Z,-2.24
2018-03-02T06:17:10.531Z,-2.20
2018-03-02T06:18:10.108Z,-2.27
2018-03-02T06:20:05.922Z,-2.28
2018-03-02T06:21:05.906Z,-2.24
2018-03-02T06:23:01.834Z,-2.34
2018-03-02T06:24:01.825Z,-2.34
2018-03-02T06:25:57.737Z,-2.24
2018-03-02T06:28:14.161Z,-2.27
2018-03-02T06:29:14.161Z,-2.23
2018-03-02T06:31:10.510Z,-2.21
2018-03-02T06:32:10.483Z,-2.32
2018-03-02T06:34:06.446Z,-2.23
2018-03-02T06:35:06.935Z,-2.21
2018-03-02T06:37:02.346Z,-2.20
2018-03-02T06:38:02.292Z,-2.28
2018-03-02T06:39:59.735Z,-2.14
2018-03-02T06:40:58.212Z,-2.20
2018-03-02T06:42:54.151Z,-2.21
2018-03-02T06:43:54.118Z,-2.15
2018-03-02T06:45:50.073Z,-2.14
2018-03-02T06:46:50.015Z,-2.12
2018-03-02T06:48:46.449Z,-2.17
2018-03-02T06:49:45.877Z,-2.14
2018-03-02T06:51:42.818Z,-2.20
2018-03-02T06:52:41.784Z,-2.09
2018-03-02T06:54:38.736Z,-2.12
2018-03-02T06:55:37.745Z,-2.12
2018-03-02T06:57:33.666Z,-2.06
2018-03-02T06:58:33.609Z,-2.07
2018-03-02T07:00:29.516Z,-2.05
2018-03-02T07:01:31.070Z,-2.09
2018-03-02T07:03:26.452Z,-2.09
2018-03-02T07:04:25.940Z,-2.10
2018-03-02T07:06:21.400Z,-2.07
2018-03-02T07:07:21.335Z,-2.06
2018-03-02T07:09:18.767Z,-2.07
2018-03-02T07:10:18.223Z,-2.03
2018-03-02T07:12:14.672Z,-2.02
2018-03-02T07:13:14.126Z,-1.92
2018-03-02T07:15:10.066Z,-1.86
2018-03-02T07:16:10.565Z,-1.79
2018-03-02T07:18:05.992Z,-1.91
2018-03-02T07:19:06.062Z,-1.78
2018-03-02T07:21:03.338Z,-1.78
2018-03-02T07:22:02.465Z,-1.73
2018-03-02T07:23:59.226Z,-1.61
2018-03-02T07:24:59.900Z,-1.58
2018-03-02T07:26:55.161Z,-1.61
2018-03-02T07:27:55.141Z,-1.53
2018-03-02T07:30:08.963Z,-1.58
2018-03-02T07:32:21.766Z,-1.66
2018-03-02T07:33:21.728Z,-1.67
2018-03-02T07:35:29.712Z,-1.66
2018-03-02T07:37:33.574Z,-1.68
2018-03-02T07:38:33.561Z,-1.73
2018-03-02T07:40:29.499Z,-1.73
2018-03-02T07:41:29.469Z,-1.61
2018-03-02T07:43:25.911Z,-1.64
2018-03-02T07:44:25.375Z,-1.64
2018-03-02T07:46:21.818Z,-1.68
2018-03-02T07:47:21.277Z,-1.53
2018-03-02T07:49:19.795Z,-1.73
2018-03-02T07:50:19.291Z,-1.74
2018-03-02T07:52:16.709Z,-1.60
2018-03-02T07:53:15.214Z,-1.46
2018-03-02T07:55:12.664Z,-1.43
2018-03-02T07:56:11.660Z,-1.40
2018-03-02T07:58:08.567Z,-1.48
2018-03-02T07:59:07.995Z,-1.49
2018-03-02T08:01:04.444Z,-1.43
2018-03-02T08:02:03.980Z,-1.45
2018-03-02T08:04:00.331Z,-1.32
2018-03-02T08:05:00.336Z,-1.40
2018-03-02T08:06:55.748Z,-1.40
2018-03-02T08:07:55.698Z,-1.32
2018-03-02T08:09:51.619Z,-1.49
2018-03-02T08:10:51.603Z,-1.43
2018-03-02T08:12:48.148Z,-1.46
2018-03-02T08:13:47.513Z,-1.40
2018-03-02T08:15:43.943Z,-1.32
2018-03-02T08:16:43.949Z,-1.32
2018-03-02T08:18:39.321Z,-1.16
2018-03-02T08:19:39.294Z,-1.27
2018-03-02T08:21:35.218Z,-1.14
2018-03-02T08:22:35.203Z,-1.13
2018-03-02T08:24:31.160Z,-1.13
2018-03-02T08:25:31.113Z,-1.14
2018-03-02T08:27:27.061Z,-1.21
2018-03-02T08:28:27.016Z,-1.16
2018-03-02T08:30:22.973Z,-1.17
2018-03-02T08:31:22.942Z,-1.07
2018-03-02T08:33:18.897Z,-1.03
2018-03-02T08:34:18.865Z,-1.01
2018-03-02T08:36:15.298Z,-0.99
2018-03-02T08:38:31.210Z,-1.01
2018-03-02T08:39:30.691Z,-1.06
2018-03-02T08:41:26.651Z,-0.96
2018-03-02T08:42:26.614Z,-1.04
2018-03-02T08:44:23.033Z,-0.98
2018-03-02T08:45:22.518Z,-1.13
2018-03-02T08:47:18.442Z,-1.21
2018-03-02T08:48:18.446Z,-1.24
2018-03-02T08:50:14.877Z,-1.25
2018-03-02T08:51:14.352Z,-1.07
2018-03-02T08:53:10.290Z,-0.98
2018-03-02T08:54:10.257Z,-0.99
2018-03-02T08:56:06.684Z,-0.99
2018-03-02T08:57:06.898Z,-0.89
2018-03-02T08:59:02.604Z,-0.74
2018-03-02T09:00:02.055Z,-0.74
2018-03-02T09:01:57.963Z,-0.52
2018-03-02T09:02:57.951Z,-0.58
2018-03-02T09:04:53.860Z,-0.66
2018-03-02T09:05:53.851Z,-0.69
2018-03-02T09:07:49.792Z,-0.58
2018-03-02T09:08:49.780Z,-0.56
2018-03-02T09:10:45.751Z,-0.61
2018-03-02T09:11:45.745Z,-0.56
2018-03-02T09:13:41.618Z,-0.61
2018-03-02T09:14:41.619Z,-0.52
2018-03-02T09:16:38.085Z,-0.40
2018-03-02T09:17:37.514Z,-0.34
2018-03-02T09:19:33.500Z,-0.16
2018-03-02T09:20:33.441Z,-0.16
2018-03-02T09:22:29.336Z,-0.27
2018-03-02T09:23:29.344Z,-0.31
2018-03-02T09:25:25.769Z,-0.37
2018-03-02T09:27:53.847Z,-0.20
2018-03-02T09:28:53.840Z,-0.16
2018-03-02T09:30:49.799Z,-0.04
2018-03-02T09:31:49.745Z,-0.10
2018-03-02T09:33:46.242Z,-0.16
2018-03-02T09:34:45.708Z,-0.12
2018-03-02T09:36:41.626Z,-0.10
2018-03-02T09:37:41.607Z,-0.05
2018-03-02T09:39:37.503Z,0.09
2018-03-02T09:40:37.506Z,0.20
2018-03-02T09:42:33.434Z,0.27
2018-03-02T09:43:33.413Z,0.37
2018-03-02T09:45:29.320Z,0.44
2018-03-02T09:46:29.326Z,0.63
2018-03-02T09:48:25.768Z,0.67
2018-03-02T09:49:25.211Z,0.75
2018-03-02T09:51:21.645Z,0.69
2018-03-02T09:52:21.639Z,0.74
2018-03-02T09:54:17.570Z,0.75
2018-03-02T09:55:17.044Z,0.79
2018-03-02T09:57:12.995Z,0.79
2018-03-02T09:58:12.981Z,0.82
2018-03-02T10:00:08.896Z,1.08
2018-03-02T10:01:08.922Z,1.18
2018-03-02T10:03:05.828Z,1.11
2018-03-02T10:04:05.341Z,1.11
2018-03-02T10:06:00.768Z,1.18
2018-03-02T10:07:00.715Z,1.26
2018-03-02T10:08:56.696Z,1.40
2018-03-02T10:09:56.595Z,1.40
2018-03-02T10:11:52.544Z,1.51
2018-03-02T10:12:52.533Z,1.46
2018-03-02T10:14:48.487Z,1.47
2018-03-02T10:15:48.441Z,1.48
2018-03-02T10:17:45.387Z,1.26
2018-03-02T10:18:44.393Z,1.15
2018-03-02T10:20:40.338Z,0.86
2018-03-02T10:21:40.320Z,0.96
2018-03-02T10:23:36.229Z,1.15
2018-03-02T10:24:36.233Z,1.33
2018-03-02T10:26:32.128Z,1.30
2018-03-02T10:27:32.122Z,1.30
2018-03-02T10:29:28.572Z,1.47
2018-03-02T10:30:28.028Z,1.60
2018-03-02T10:32:23.978Z,1.58
2018-03-02T10:33:23.952Z,1.64
2018-03-02T10:35:21.923Z,1.61
2018-03-02T10:36:21.883Z,1.61
2018-03-02T10:38:18.302Z,1.71
2018-03-02T10:39:17.758Z,1.82
2018-03-02T10:41:13.715Z,1.58
2018-03-02T10:42:13.727Z,1.72
2018-03-02T10:44:09.608Z,1.87
2018-03-02T10:45:09.598Z,1.83
2018-03-02T10:47:05.525Z,1.69
2018-03-02T10:48:05.508Z,1.74
2018-03-02T10:50:01.476Z,1.69
2018-03-02T10:51:01.431Z,1.86
2018-03-02T10:53:21.003Z,1.93
2018-03-02T10:54:07.305Z,1.83
2018-03-02T10:56:26.117Z,2.01
2018-03-02T10:57:21.404Z,1.93
2018-03-02T10:59:28.731Z,2.08
2018-03-02T11:00:27.301Z,2.06
2018-03-02T11:02:23.752Z,1.84
2018-03-02T11:03:23.219Z,1.83
2018-03-02T11:05:19.140Z,1.79
2018-03-02T11:06:19.146Z,2.01
2018-03-02T11:08:12.510Z,1.92
2018-03-02T11:09:12.523Z,2.02
2018-03-02T11:11:08.466Z,2.20
2018-03-02T11:12:08.424Z,1.94
2018-03-02T11:14:05.381Z,1.92
2018-03-02T11:15:04.355Z,1.87
2018-03-02T11:17:00.310Z,1.83
2018-03-02T11:18:00.297Z,1.79
2018-03-02T11:19:57.242Z,1.83
2018-03-02T11:20:56.240Z,2.06
2018-03-02T11:22:52.179Z,2.08
2018-03-02T11:23:52.128Z,1.86
2018-03-02T11:25:48.078Z,1.90
2018-03-02T11:26:48.058Z,1.94
2018-03-02T11:28:43.936Z,2.11
2018-03-02T11:29:43.932Z,2.11
2018-03-02T11:31:39.864Z,2.02
2018-03-02T11:32:39.855Z,1.97
2018-03-02T11:34:35.792Z,1.84
2018-03-02T11:35:37.300Z,1.93
2018-03-02T11:37:31.767Z,1.87
2018-03-02T11:38:32.234Z,1.98
2018-03-02T11:40:27.673Z,2.20
2018-03-02T11:41:28.162Z,2.34
2018-03-02T11:43:25.096Z,2.47
2018-03-02T11:44:24.088Z,2.31
2018-03-02T11:46:20.005Z,2.44
2018-03-02T11:47:19.487Z,2.48
2018-03-02T11:49:15.399Z,2.69
2018-03-02T11:50:15.936Z,2.73
2018-03-02T11:52:11.356Z,2.69
2018-03-02T11:53:11.326Z,2.63
2018-03-02T11:55:08.193Z,2.47
2018-03-02T11:56:07.234Z,2.49
2018-03-02T11:58:03.191Z,2.44
2018-03-02T11:59:03.159Z,2.48
2018-03-02T12:00:59.634Z,2.65
2018-03-02T12:01:59.081Z,2.73
2018-03-02T12:03:55.048Z,2.87
2018-03-02T12:04:55.002Z,2.87
2018-03-02T12:06:52.455Z,2.83
2018-03-02T12:07:51.937Z,2.73
2018-03-02T12:09:47.846Z,2.73
2018-03-02T12:10:47.868Z,2.70
2018-03-02T12:12:43.782Z,2.73
2018-03-02T12:13:43.763Z,2.87
2018-03-02T12:15:40.236Z,2.96
2018-03-02T12:16:39.684Z,3.03
2018-03-02T12:18:35.602Z,2.99
2018-03-02T12:19:35.571Z,3.03
2018-03-02T12:21:31.541Z,3.17
2018-03-02T12:22:32.091Z,3.27
2018-03-02T12:24:27.461Z,3.17
2018-03-02T12:25:27.432Z,3.37
2018-03-02T12:27:21.875Z,3.39
2018-03-02T12:28:21.925Z,3.35
2018-03-02T12:30:19.814Z,3.27
2018-03-02T12:31:17.814Z,3.19
2018-03-02T12:33:13.772Z,3.09
2018-03-02T12:34:14.252Z,2.95
2018-03-02T12:36:09.730Z,2.84
2018-03-02T12:37:09.684Z,2.77
2018-03-02T12:39:05.600Z,2.73
2018-03-02T12:40:05.594Z,2.69
2018-03-02T12:42:01.544Z,2.80
2018-03-02T12:43:01.522Z,2.73
2018-03-02T12:44:57.450Z,2.90
2018-03-02T12:45:57.451Z,2.95
2018-03-02T12:47:53.901Z,2.99
2018-03-02T12:48:53.376Z,3.02
2018-03-02T12:50:49.846Z,3.01
2018-03-02T12:51:49.457Z,2.99
2018-03-02T12:53:45.429Z,3.26
2018-03-02T12:54:45.393Z,3.26
2018-03-02T12:56:43.843Z,3.19
2018-03-02T12:57:42.318Z,3.06
2018-03-02T12:59:38.256Z,3.21
2018-03-02T13:00:38.233Z,3.27
2018-03-02T13:02:33.178Z,3.29
2018-03-02T13:03:32.659Z,3.29
2018-03-02T13:05:29.127Z,3.26
2018-03-02T13:06:28.610Z,3.26
2018-03-02T13:08:24.563Z,3.51
2018-03-02T13:09:25.081Z,3.45
2018-03-02T13:11:20.466Z,3.43
2018-03-02T13:12:20.456Z,3.37
2018-03-02T13:14:16.370Z,3.56
2018-03-02T13:15:16.908Z,3.63
2018-03-02T13:17:13.234Z,3.57
2018-03-02T13:18:12.308Z,3.64
2018-03-02T13:20:09.287Z,3.57
2018-03-02T13:21:08.216Z,3.63
2018-03-02T13:23:04.679Z,3.27
2018-03-02T13:24:04.133Z,3.42
2018-03-02T13:26:00.096Z,3.27
2018-03-02T13:27:00.060Z,3.26
2018-03-02T13:28:55.955Z,3.24
2018-03-02T13:29:56.509Z,3.26
2018-03-02T13:31:51.880Z,3.24
2018-03-02T13:32:51.883Z,3.13
2018-03-02T13:34:47.792Z,3.16
2018-03-02T13:35:47.796Z,3.13
2018-03-02T13:37:44.239Z,3.02
2018-03-02T13:38:44.248Z,3.06
2018-03-02T13:40:39.625Z,3.01
2018-03-02T13:41:39.624Z,2.91
2018-03-02T13:43:35.609Z,2.93
2018-03-02T13:44:35.545Z,2.84
2018-03-02T13:46:33.500Z,2.80
2018-03-02T13:47:33.467Z,2.90
2018-03-02T13:49:29.430Z,3.03
2018-03-02T13:50:29.399Z,3.08
2018-03-02T13:52:25.351Z,3.08
2018-03-02T13:53:25.327Z,3.23
2018-03-02T13:55:21.366Z,3.11
2018-03-02T13:56:21.247Z,3.26
2018-03-02T13:58:18.506Z,3.26
2018-03-02T13:59:18.480Z,3.11
2018-03-02T14:01:15.438Z,3.06
2018-03-02T14:02:15.937Z,3.06
2018-03-02T14:04:11.058Z,3.16
2018-03-02T14:05:10.350Z,3.27
2018-03-02T14:07:16.470Z,3.19
2018-03-02T14:08:14.769Z,3.14
2018-03-02T14:10:10.698Z,3.23
2018-03-02T14:11:10.699Z,3.26
2018-03-02T14:13:06.669Z,3.14
2018-03-02T14:14:06.656Z,3.16
2018-03-02T14:16:03.607Z,2.99
2018-03-02T14:17:03.104Z,3.11
2018-03-02T14:18:59.037Z,2.98
2018-03-02T14:20:00.045Z,2.91
2018-03-02T14:21:54.943Z,2.81
2018-03-02T14:22:54.404Z,2.85
2018-03-02T14:24:50.383Z,2.85
2018-03-02T14:25:50.332Z,2.93
2018-03-02T14:27:47.260Z,2.88
2018-03-02T14:28:46.775Z,2.93
2018-03-02T14:30:42.175Z,2.96
2018-03-02T14:31:42.703Z,3.05
2018-03-02T14:33:59.624Z,3.16
2018-03-02T14:34:38.616Z,3.16
2018-03-02T14:36:34.525Z,3.05
2018-03-02T14:37:34.018Z,3.16
2018-03-02T14:39:30.475Z,3.19
2018-03-02T14:40:29.962Z,3.20
2018-03-02T14:42:25.898Z,3.16
2018-03-02T14:43:25.885Z,3.14
2018-03-02T14:45:20.330Z,2.99
2018-03-02T14:46:20.305Z,2.98
2018-03-02T14:48:16.270Z,2.99
2018-03-02T14:49:16.182Z,2.99
2018-03-02T14:51:12.632Z,2.99
2018-03-02T14:52:12.101Z,3.14
2018-03-02T14:54:07.532Z,3.08
2018-03-02T14:55:06.528Z,3.02
2018-03-02T14:57:02.479Z,2.98
2018-03-02T14:58:03.009Z,2.98
2018-03-02T15:00:00.138Z,3.06
2018-03-02T15:01:00.058Z,3.02
2018-03-02T15:02:57.039Z,3.19
2018-03-02T15:03:57.018Z,3.20
2018-03-02T15:05:52.495Z,3.11
2018-03-02T15:06:52.508Z,3.16
2018-03-02T15:08:49.949Z,3.14
2018-03-02T15:09:48.391Z,3.16
2018-03-02T15:11:43.347Z,3.20
2018-03-02T15:12:44.343Z,3.11
2018-03-02T15:14:38.799Z,3.02
2018-03-02T15:15:39.379Z,3.05
2018-03-02T15:17:34.743Z,2.99
2018-03-02T15:18:35.640Z,3.02
2018-03-02T15:20:31.155Z,3.01
2018-03-02T15:21:30.619Z,3.02
2018-03-02T15:23:28.605Z,3.05
2018-03-02T15:24:28.575Z,3.05
2018-03-02T15:26:24.794Z,2.91
2018-03-02T15:27:25.509Z,2.85
2018-03-02T15:29:20.968Z,2.85
2018-03-02T15:30:20.448Z,2.83
2018-03-02T15:32:16.411Z,2.90
2018-03-02T15:33:16.939Z,2.95
2018-03-02T15:35:12.815Z,2.78
2018-03-02T15:36:12.285Z,2.76
2018-03-02T15:38:08.187Z,2.80
2018-03-02T15:39:08.179Z,2.96
2018-03-02T15:41:04.653Z,3.05
2018-03-02T15:42:04.104Z,3.02
2018-03-02T15:44:01.048Z,2.96
2018-03-02T15:45:00.538Z,3.02
2018-03-02T15:46:58.951Z,2.93
2018-03-02T15:47:57.001Z,2.84
2018-03-02T15:49:52.992Z,2.72
2018-03-02T15:50:52.930Z,2.73
2018-03-02T15:52:48.847Z,2.78
2018-03-02T15:53:48.843Z,2.66
2018-03-02T15:55:45.303Z,2.73
2018-03-02T15:56:44.761Z,2.70
2018-03-02T15:58:42.238Z,2.69
2018-03-02T15:59:42.215Z,2.66
2018-03-02T16:01:37.461Z,2.70
2018-03-02T16:02:37.935Z,2.55
2018-03-02T16:04:33.850Z,2.63
2018-03-02T16:05:33.865Z,2.67
2018-03-02T16:07:29.306Z,2.49
2018-03-02T16:08:29.250Z,2.49
2018-03-02T16:10:25.694Z,2.65
2018-03-02T16:11:25.701Z,2.66
2018-03-02T16:13:23.279Z,2.63
2018-03-02T16:14:23.273Z,2.72
2018-03-02T16:16:19.207Z,2.67
2018-03-02T16:17:19.169Z,2.58
2018-03-02T16:19:15.089Z,2.54
2018-03-02T16:20:15.084Z,2.65
2018-03-02T16:22:11.051Z,2.51
2018-03-02T16:23:11.015Z,2.52
2018-03-02T16:25:06.960Z,2.42
2018-03-02T16:26:07.462Z,2.38
2018-03-02T16:28:01.400Z,2.42
2018-03-02T16:29:01.329Z,2.42
2018-03-02T16:30:56.270Z,2.51
2018-03-02T16:31:56.284Z,2.44
2018-03-02T16:33:51.673Z,2.48
2018-03-02T16:34:51.668Z,2.47
2018-03-02T16:36:47.666Z,2.48
2018-03-02T16:37:47.561Z,2.48
2018-03-02T16:39:45.038Z,2.48
2018-03-02T16:40:43.480Z,2.49
2018-03-02T16:42:39.451Z,2.48
2018-03-02T16:43:39.406Z,2.47
2018-03-02T16:45:35.842Z,2.59
2018-03-02T16:46:35.329Z,2.51
2018-03-02T16:48:32.274Z,2.51
2018-03-02T16:49:31.206Z,2.45
2018-03-02T16:51:27.639Z,2.42
2018-03-02T16:52:27.116Z,2.29
2018-03-02T16:54:23.074Z,2.36
2018-03-02T16:55:23.083Z,2.36
2018-03-02T16:57:19.017Z,2.47
2018-03-02T16:58:19.004Z,2.41
2018-03-02T17:00:15.464Z,2.38
2018-03-02T17:01:14.926Z,2.36
2018-03-02T17:03:10.834Z,2.38
2018-03-02T17:04:10.868Z,2.33
2018-03-02T17:06:05.773Z,2.30
2018-03-02T17:07:03.818Z,2.30
2018-03-02T17:08:59.687Z,2.23
2018-03-02T17:10:00.253Z,2.15
2018-03-02T17:11:56.137Z,2.16
2018-03-02T17:12:55.604Z,2.22
2018-03-02T17:14:52.072Z,2.09
2018-03-02T17:15:51.522Z,2.02
2018-03-02T17:17:47.460Z,2.09
2018-03-02T17:18:47.439Z,2.08
2018-03-02T17:20:43.405Z,2.06
2018-03-02T17:21:43.902Z,2.09
2018-03-02T17:23:39.802Z,2.04
2018-03-02T17:24:39.292Z,2.05
2018-03-02T17:26:35.216Z,2.08
2018-03-02T17:27:35.188Z,2.12
2018-03-02T17:29:31.124Z,2.15
2018-03-02T17:30:31.112Z,2.15
2018-03-02T17:32:27.042Z,2.09
2018-03-02T17:33:27.053Z,2.11
2018-03-02T17:35:23.996Z,2.05
2018-03-02T17:36:22.973Z,2.05
2018-03-02T17:38:19.414Z,2.08
2018-03-02T17:39:18.866Z,2.08
2018-03-02T17:41:14.803Z,2.05
2018-03-02T17:42:14.761Z,2.08
2018-03-02T17:44:10.706Z,2.08
2018-03-02T17:45:10.688Z,2.06
2018-03-02T17:47:06.677Z,2.02
2018-03-02T17:48:06.613Z,2.09
2018-03-02T17:50:08.086Z,1.92
2018-03-02T17:51:07.100Z,1.97
2018-03-02T17:53:05.486Z,1.93
2018-03-02T17:54:04.981Z,1.92
2018-03-02T17:56:05.436Z,1.92
2018-03-02T17:57:05.908Z,1.89
2018-03-02T17:59:05.004Z,1.83
2018-03-02T18:00:03.528Z,1.82
2018-03-02T18:02:02.896Z,1.82
2018-03-02T18:03:02.402Z,1.86
2018-03-02T18:04:59.044Z,1.92
2018-03-02T18:05:57.401Z,1.86
2018-03-02T18:07:55.450Z,1.69
2018-03-02T18:08:55.445Z,1.71
2018-03-02T18:10:51.896Z,1.60
2018-03-02T18:11:51.370Z,1.66
2018-03-02T18:13:47.348Z,1.66
2018-03-02T18:14:47.297Z,1.60
2018-03-02T18:16:43.744Z,1.61
2018-03-02T18:17:43.730Z,1.65
2018-03-02T18:19:39.115Z,1.60
2018-03-02T18:20:39.129Z,1.53
2018-03-02T18:22:35.072Z,1.50
2018-03-02T18:23:35.028Z,1.47
2018-03-02T18:25:29.491Z,1.36
2018-03-02T18:26:29.973Z,1.38
2018-03-02T18:28:25.417Z,1.33
2018-03-02T18:29:25.897Z,1.33
2018-03-02T18:31:21.807Z,1.20
2018-03-02T18:32:21.270Z,1.26
2018-03-02T18:34:17.206Z,1.17
2018-03-02T18:35:17.198Z,1.21
2018-03-02T18:37:13.148Z,1.15
2018-03-02T18:38:13.658Z,1.11
2018-03-02T18:40:09.069Z,1.17
2018-03-02T18:41:09.565Z,1.04
2018-03-02T18:43:04.983Z,0.93
2018-03-02T18:44:05.502Z,1.02
2018-03-02T18:46:01.412Z,0.99
2018-03-02T18:47:01.426Z,0.89
2018-03-02T18:48:56.799Z,1.00
2018-03-02T18:49:56.785Z,0.90
2018-03-02T18:51:53.220Z,0.96
2018-03-02T18:52:52.710Z,0.96
2018-03-02T18:54:50.676Z,0.89
2018-03-02T18:55:50.632Z,0.90
2018-03-02T18:57:46.550Z,0.86
2018-03-02T18:58:46.542Z,0.79
2018-03-02T19:00:42.449Z,0.92
2018-03-02T19:01:42.467Z,0.89
2018-03-02T19:03:39.398Z,0.92
2018-03-02T19:04:38.353Z,0.76
2018-03-02T19:06:34.290Z,0.60
2018-03-02T19:07:34.271Z,0.57
2018-03-02T19:09:30.233Z,0.48
2018-03-02T19:10:30.201Z,0.41
2018-03-02T19:12:26.118Z,0.41
2018-03-02T19:13:26.120Z,0.31
2018-03-02T19:15:22.080Z,0.39
2018-03-02T19:16:22.563Z,0.21
2018-03-02T19:18:19.929Z,0.19